sensor_id;sensor_type;location;lat;lon;timestamp;pressure;altitude;pressure_sealevel;temperature;humidity
39699;BME280;25372;50.582;12.250;2023-10-08T00:09:29;99823.84;;;17.50;68.58
39699;BME280;25372;50.582;12.250;2023-10-08T00:19:56;99820.81;;;17.45;69.60
39699;BME280;25372;50.582;12.250;2023-10-08T00:30:20;99816.31;;;17.45;69.03
39699;BME280;25372;50.582;12.250;2023-10-08T00:40:42;99802.75;;;17.58;69.18
39699;BME280;25372;50.582;12.250;2023-10-08T00:51:05;99806.53;;;17.46;70.10
39699;BME280;25372;50.582;12.250;2023-10-08T01:01:45;99813.97;;;17.32;70.81
39699;BME280;25372;50.582;12.250;2023-10-08T01:12:12;99828.59;;;17.46;69.75
39699;BME280;25372;50.582;12.250;2023-10-08T01:22:36;99847.22;;;17.07;73.06
39699;BME280;25372;50.582;12.250;2023-10-08T01:32:58;99842.53;;;16.70;76.32
39699;BME280;25372;50.582;12.250;2023-10-08T01:43:23;99889.78;;;15.83;85.40
39699;BME280;25372;50.582;12.250;2023-10-08T01:53:47;99918.44;;;14.91;95.75
39699;BME280;25372;50.582;12.250;2023-10-08T02:04:09;99952.56;;;12.94;95.48
39699;BME280;25372;50.582;12.250;2023-10-08T02:14:32;99983.09;;;12.46;99.59
39699;BME280;25372;50.582;12.250;2023-10-08T02:24:56;99986.63;;;11.93;100.00
39699;BME280;25372;50.582;12.250;2023-10-08T02:35:20;100010.19;;;11.54;99.90
39699;BME280;25372;50.582;12.250;2023-10-08T02:45:44;100059.31;;;11.54;100.00
39699;BME280;25372;50.582;12.250;2023-10-08T02:56:07;100070.97;;;11.50;100.00
39699;BME280;25372;50.582;12.250;2023-10-08T03:06:33;100103.50;;;11.19;100.00
39699;BME280;25372;50.582;12.250;2023-10-08T03:16:56;100140.97;;;11.23;100.00
39699;BME280;25372;50.582;12.250;2023-10-08T03:27:28;100174.00;;;11.13;100.00
39699;BME280;25372;50.582;12.250;2023-10-08T03:37:49;100199.72;;;10.16;100.00
39699;BME280;25372;50.582;12.250;2023-10-08T03:48:11;100243.19;;;9.72;100.00
39699;BME280;25372;50.582;12.250;2023-10-08T03:58:34;100241.28;;;9.91;100.00
39699;BME280;25372;50.582;12.250;2023-10-08T04:09:02;100276.53;;;9.70;100.00
39699;BME280;25372;50.582;12.250;2023-10-08T04:19:35;100260.41;;;9.26;100.00
39699;BME280;25372;50.582;12.250;2023-10-08T04:29:57;100281.72;;;9.20;100.00
39699;BME280;25372;50.582;12.250;2023-10-08T04:40:19;100288.06;;;8.79;100.00
39699;BME280;25372;50.582;12.250;2023-10-08T04:50:44;100311.72;;;8.77;100.00
39699;BME280;25372;50.582;12.250;2023-10-08T05:01:06;100367.09;;;8.70;100.00
39699;BME280;25372;50.582;12.250;2023-10-08T05:11:41;100375.41;;;8.39;100.00
39699;BME280;25372;50.582;12.250;2023-10-08T05:22:26;100372.34;;;8.87;100.00
39699;BME280;25372;50.582;12.250;2023-10-08T05:33:16;100396.56;;;8.73;100.00
39699;BME280;25372;50.582;12.250;2023-10-08T05:43:57;100403.63;;;8.53;100.00
39699;BME280;25372;50.582;12.250;2023-10-08T05:54:44;100434.47;;;8.66;100.00
39699;BME280;25372;50.582;12.250;2023-10-08T06:05:28;100446.06;;;8.60;100.00
39699;BME280;25372;50.582;12.250;2023-10-08T06:15:54;100469.19;;;8.50;100.00
39699;BME280;25372;50.582;12.250;2023-10-08T06:26:25;100475.22;;;8.32;100.00
39699;BME280;25372;50.582;12.250;2023-10-08T06:36:49;100489.47;;;8.24;100.00
39699;BME280;25372;50.582;12.250;2023-10-08T06:47:13;100479.97;;;8.43;100.00
39699;BME280;25372;50.582;12.250;2023-10-08T06:57:37;100529.69;;;8.63;100.00
39699;BME280;25372;50.582;12.250;2023-10-08T07:07:59;100525.91;;;8.71;100.00
39699;BME280;25372;50.582;12.250;2023-10-08T07:18:25;100551.75;;;8.78;100.00
39699;BME280;25372;50.582;12.250;2023-10-08T07:28:46;100573.22;;;9.06;100.00
39699;BME280;25372;50.582;12.250;2023-10-08T07:39:09;100612.47;;;9.07;100.00
39699;BME280;25372;50.582;12.250;2023-10-08T07:49:42;100618.31;;;9.32;100.00
39699;BME280;25372;50.582;12.250;2023-10-08T08:00:07;100632.00;;;9.38;100.00
39699;BME280;25372;50.582;12.250;2023-10-08T08:10:42;100667.25;;;9.52;100.00
39699;BME280;25372;50.582;12.250;2023-10-08T08:21:09;100676.09;;;9.49;100.00
39699;BME280;25372;50.582;12.250;2023-10-08T08:31:34;100660.59;;;10.01;100.00
39699;BME280;25372;50.582;12.250;2023-10-08T08:42:00;100662.13;;;10.05;100.00
39699;BME280;25372;50.582;12.250;2023-10-08T08:52:21;100681.53;;;10.57;100.00
39699;BME280;25372;50.582;12.250;2023-10-08T09:02:44;100683.44;;;10.88;98.77
39699;BME280;25372;50.582;12.250;2023-10-08T09:13:07;100698.88;;;10.77;95.12
39699;BME280;25372;50.582;12.250;2023-10-08T09:23:30;100705.59;;;11.00;96.14
39699;BME280;25372;50.582;12.250;2023-10-08T09:33:54;100704.38;;;11.08;92.69
39699;BME280;25372;50.582;12.250;2023-10-08T09:44:17;100730.59;;;10.74;93.27
39699;BME280;25372;50.582;12.250;2023-10-08T09:54:44;100738.09;;;10.64;94.37
39699;BME280;25372;50.582;12.250;2023-10-08T10:05:10;100756.06;;;11.25;93.38
39699;BME280;25372;50.582;12.250;2023-10-08T10:15:32;100768.03;;;11.64;89.45
39699;BME280;25372;50.582;12.250;2023-10-08T10:25:56;100772.25;;;11.84;90.73
39699;BME280;25372;50.582;12.250;2023-10-08T10:36:17;100776.63;;;11.84;88.42
39699;BME280;25372;50.582;12.250;2023-10-08T10:46:45;100780.34;;;12.76;84.91
39699;BME280;25372;50.582;12.250;2023-10-08T10:57:10;100772.16;;;12.50;82.11
39699;BME280;25372;50.582;12.250;2023-10-08T11:07:38;100781.69;;;12.83;80.00
39699;BME280;25372;50.582;12.250;2023-10-08T11:18:00;100773.88;;;13.27;79.45
39699;BME280;25372;50.582;12.250;2023-10-08T11:28:23;100782.84;;;12.63;75.63
39699;BME280;25372;50.582;12.250;2023-10-08T11:38:47;100778.13;;;12.38;78.25
39699;BME280;25372;50.582;12.250;2023-10-08T11:49:11;100770.88;;;12.88;76.82
39699;BME280;25372;50.582;12.250;2023-10-08T11:59:37;100767.03;;;12.63;73.03
39699;BME280;25372;50.582;12.250;2023-10-08T12:10:00;100756.16;;;12.53;78.31
39699;BME280;25372;50.582;12.250;2023-10-08T12:20:21;100747.91;;;12.59;76.95
39699;BME280;25372;50.582;12.250;2023-10-08T12:30:44;100730.66;;;13.73;70.23
39699;BME280;25372;50.582;12.250;2023-10-08T12:41:05;100735.56;;;13.50;70.98
39699;BME280;25372;50.582;12.250;2023-10-08T12:51:32;100726.06;;;12.88;74.46
39699;BME280;25372;50.582;12.250;2023-10-08T13:01:53;100710.19;;;13.19;74.12
39699;BME280;25372;50.582;12.250;2023-10-08T13:12:15;100715.09;;;13.68;68.31
39699;BME280;25372;50.582;12.250;2023-10-08T13:22:36;100699.00;;;13.29;70.79
39699;BME280;25372;50.582;12.250;2023-10-08T13:32:58;100712.53;;;12.94;71.61
39699;BME280;25372;50.582;12.250;2023-10-08T13:43:19;100709.13;;;12.92;69.78
39699;BME280;25372;50.582;12.250;2023-10-08T13:53:50;100718.25;;;12.56;70.21
39699;BME280;25372;50.582;12.250;2023-10-08T14:04:12;100725.19;;;12.73;69.00
39699;BME280;25372;50.582;12.250;2023-10-08T14:14:38;100733.63;;;12.94;69.65
39699;BME280;25372;50.582;12.250;2023-10-08T14:25:03;100734.88;;;12.72;70.01
39699;BME280;25372;50.582;12.250;2023-10-08T14:35:33;100714.69;;;13.75;67.25
39699;BME280;25372;50.582;12.250;2023-10-08T14:46:11;100729.97;;;14.11;63.98
39699;BME280;25372;50.582;12.250;2023-10-08T14:56:37;100735.50;;;14.21;65.07
39699;BME280;25372;50.582;12.250;2023-10-08T15:06:59;100724.13;;;13.79;66.72
39699;BME280;25372;50.582;12.250;2023-10-08T15:17:21;100729.81;;;13.58;68.38
39699;BME280;25372;50.582;12.250;2023-10-08T15:27:42;100733.91;;;12.90;68.84
39699;BME280;25372;50.582;12.250;2023-10-08T15:38:05;100766.03;;;11.85;74.00
39699;BME280;25372;50.582;12.250;2023-10-08T15:48:26;100767.28;;;11.28;80.57
39699;BME280;25372;50.582;12.250;2023-10-08T15:58:49;100762.69;;;10.44;89.60
39699;BME280;25372;50.582;12.250;2023-10-08T16:09:10;100755.69;;;10.25;93.23
39699;BME280;25372;50.582;12.250;2023-10-08T16:19:32;100768.47;;;10.14;96.10
39699;BME280;25372;50.582;12.250;2023-10-08T16:29:53;100787.63;;;9.57;98.21
39699;BME280;25372;50.582;12.250;2023-10-08T16:40:18;100813.34;;;9.88;95.53
39699;BME280;25372;50.582;12.250;2023-10-08T16:50:39;100828.31;;;10.25;96.83
39699;BME280;25372;50.582;12.250;2023-10-08T17:01:01;100819.09;;;10.16;94.48
39699;BME280;25372;50.582;12.250;2023-10-08T17:11:27;100835.25;;;9.87;97.60
39699;BME280;25372;50.582;12.250;2023-10-08T17:21:49;100824.69;;;9.89;99.07
39699;BME280;25372;50.582;12.250;2023-10-08T17:32:10;100845.44;;;9.74;99.33
39699;BME280;25372;50.582;12.250;2023-10-08T17:42:32;100829.22;;;9.85;98.87
39699;BME280;25372;50.582;12.250;2023-10-08T17:52:53;100833.97;;;9.96;97.92
39699;BME280;25372;50.582;12.250;2023-10-08T18:03:16;100814.78;;;10.15;96.07
39699;BME280;25372;50.582;12.250;2023-10-08T18:13:38;100805.38;;;9.90;91.88
39699;BME280;25372;50.582;12.250;2023-10-08T18:24:03;100795.97;;;10.05;95.15
39699;BME280;25372;50.582;12.250;2023-10-08T18:34:24;100784.25;;;10.12;94.93
39699;BME280;25372;50.582;12.250;2023-10-08T18:44:48;100747.41;;;9.96;93.04
39699;BME280;25372;50.582;12.250;2023-10-08T18:55:11;100748.66;;;10.06;90.34
39699;BME280;25372;50.582;12.250;2023-10-08T19:05:34;100749.19;;;9.96;89.48
39699;BME280;25372;50.582;12.250;2023-10-08T19:15:55;100750.22;;;10.11;90.51
39699;BME280;25372;50.582;12.250;2023-10-08T19:26:17;100711.03;;;9.88;92.37
39699;BME280;25372;50.582;12.250;2023-10-08T19:36:45;100719.94;;;9.65;91.69
39699;BME280;25372;50.582;12.250;2023-10-08T19:47:10;100723.94;;;9.74;92.90
39699;BME280;25372;50.582;12.250;2023-10-08T19:57:33;100710.75;;;9.56;90.92
39699;BME280;25372;50.582;12.250;2023-10-08T20:07:58;100712.16;;;9.23;92.10
39699;BME280;25372;50.582;12.250;2023-10-08T20:18:21;100715.03;;;9.19;98.59
39699;BME280;25372;50.582;12.250;2023-10-08T20:28:43;100737.16;;;9.12;100.00
39699;BME280;25372;50.582;12.250;2023-10-08T20:39:04;100744.03;;;9.35;98.84
39699;BME280;25372;50.582;12.250;2023-10-08T20:49:31;100702.13;;;9.14;97.64
39699;BME280;25372;50.582;12.250;2023-10-08T20:59:53;100681.25;;;9.32;96.35
39699;BME280;25372;50.582;12.250;2023-10-08T21:10:18;100708.59;;;9.45;92.01
39699;BME280;25372;50.582;12.250;2023-10-08T21:20:39;100671.34;;;9.58;92.30
39699;BME280;25372;50.582;12.250;2023-10-08T21:31:07;100682.88;;;9.54;93.71
39699;BME280;25372;50.582;12.250;2023-10-08T21:41:28;100653.00;;;9.58;94.63
39699;BME280;25372;50.582;12.250;2023-10-08T21:51:50;100645.66;;;9.45;94.79
39699;BME280;25372;50.582;12.250;2023-10-08T22:02:11;100664.53;;;9.54;94.05
39699;BME280;25372;50.582;12.250;2023-10-08T22:12:33;100636.47;;;9.56;93.48
39699;BME280;25372;50.582;12.250;2023-10-08T22:22:54;100584.31;;;9.49;95.13
39699;BME280;25372;50.582;12.250;2023-10-08T22:33:19;100581.47;;;9.54;97.41
39699;BME280;25372;50.582;12.250;2023-10-08T22:43:45;100606.38;;;9.82;97.94
39699;BME280;25372;50.582;12.250;2023-10-08T22:54:14;100591.66;;;9.60;96.83
39699;BME280;25372;50.582;12.250;2023-10-08T23:04:35;100538.00;;;9.68;98.37
39699;BME280;25372;50.582;12.250;2023-10-08T23:14:57;100505.88;;;9.82;97.01
39699;BME280;25372;50.582;12.250;2023-10-08T23:25:18;100478.69;;;9.65;96.79
39699;BME280;25372;50.582;12.250;2023-10-08T23:35:40;100470.44;;;9.55;94.45
39699;BME280;25372;50.582;12.250;2023-10-08T23:46:03;100454.31;;;9.63;97.49
39699;BME280;25372;50.582;12.250;2023-10-08T23:56:27;100404.09;;;9.71;94.55
